createdAt,value
2022-12-03T00:02:20.669Z,64.74
2022-12-03T00:04:47.319Z,65.12
2022-12-03T00:07:13.958Z,65.70
2022-12-03T00:09:40.744Z,66.09
2022-12-03T00:12:07.393Z,65.37
2022-12-03T00:14:34.070Z,66.74
2022-12-03T00:17:00.747Z,66.48
2022-12-03T00:19:27.749Z,66.36
2022-12-03T00:21:55.033Z,65.50
2022-12-03T00:24:21.680Z,66.30
2022-12-03T00:26:48.375Z,66.62
2022-12-03T00:29:15.044Z,66.96
2022-12-03T00:31:43.128Z,67.47
2022-12-03T00:34:09.866Z,67.95
2022-12-03T00:36:36.508Z,66.46
2022-12-03T00:39:03.787Z,67.05
2022-12-03T00:41:30.491Z,67.28
2022-12-03T00:43:57.855Z,67.06
2022-12-03T00:46:25.437Z,68.01
2022-12-03T00:48:52.262Z,67.55
2022-12-03T00:51:19.495Z,66.89
2022-12-03T00:53:46.525Z,66.91
2022-12-03T00:56:15.601Z,66.58
2022-12-03T00:58:42.352Z,66.09
2022-12-03T01:01:09.018Z,65.95
2022-12-03T01:03:35.916Z,65.84
2022-12-03T01:06:02.471Z,66.73
2022-12-03T01:08:29.175Z,66.78
2022-12-03T01:10:56.152Z,67.25
2022-12-03T01:13:22.753Z,66.64
2022-12-03T01:15:49.500Z,66.40
2022-12-03T01:18:16.267Z,66.55
2022-12-03T01:20:43.060Z,65.87
2022-12-03T01:23:09.698Z,66.41
2022-12-03T01:25:36.379Z,65.95
2022-12-03T01:28:03.046Z,66.16
2022-12-03T01:30:49.690Z,65.80
2022-12-03T01:33:17.247Z,66.22
2022-12-03T01:35:44.023Z,66.10
2022-12-03T01:38:10.625Z,66.85
2022-12-03T01:40:37.269Z,66.03
2022-12-03T01:43:03.873Z,66.33
2022-12-03T01:45:30.549Z,66.36
2022-12-03T01:47:57.205Z,67.13
2022-12-03T01:50:31.962Z,66.94
2022-12-03T01:53:01.436Z,65.93
2022-12-03T01:55:29.840Z,67.46
2022-12-03T01:58:00.829Z,66.97
2022-12-03T02:00:29.236Z,67.60
2022-12-03T02:03:02.206Z,67.14
2022-12-03T02:05:32.955Z,66.10
2022-12-03T02:08:00.821Z,66.93
2022-12-03T02:10:32.746Z,65.93
2022-12-03T02:13:10.671Z,65.55
2022-12-03T02:15:39.434Z,65.56
2022-12-03T02:18:08.612Z,66.18
2022-12-03T02:20:44.670Z,66.20
2022-12-03T02:23:40.202Z,65.78
2022-12-03T02:26:07.220Z,66.67
2022-12-03T02:28:33.870Z,65.77
2022-12-03T02:31:00.654Z,65.66
2022-12-03T02:33:27.614Z,65.62
2022-12-03T02:35:56.955Z,66.22
2022-12-03T02:38:30.285Z,67.07
2022-12-03T02:41:02.219Z,65.25
2022-12-03T02:43:29.172Z,65.99
2022-12-03T02:46:01.812Z,66.70
2022-12-03T02:48:39.414Z,66.47
2022-12-03T02:51:16.081Z,66.46
2022-12-03T02:53:47.620Z,65.50
2022-12-03T02:56:20.818Z,66.14
2022-12-03T02:58:50.551Z,65.81
2022-12-03T03:01:18.057Z,65.66
2022-12-03T03:03:47.305Z,65.50
2022-12-03T03:06:15.263Z,65.65
2022-12-03T03:08:42.862Z,65.76
2022-12-03T03:11:09.687Z,65.61
2022-12-03T03:13:36.700Z,66.09
2022-12-03T03:16:05.370Z,65.26
2022-12-03T03:18:33.473Z,64.92
2022-12-03T03:21:00.414Z,64.87
2022-12-03T03:23:27.440Z,65.43
2022-12-03T03:26:02.123Z,65.70
2022-12-03T03:28:30.460Z,66.83
2022-12-03T03:30:58.923Z,66.75
2022-12-03T03:33:25.588Z,67.10
2022-12-03T03:35:53.407Z,66.81
2022-12-03T03:38:21.425Z,66.93
2022-12-03T03:40:50.522Z,66.27
2022-12-03T03:43:17.661Z,66.94
2022-12-03T03:45:44.546Z,66.36
2022-12-03T03:48:12.766Z,66.82
2022-12-03T03:50:39.994Z,67.94
2022-12-03T03:53:07.024Z,67.34
2022-12-03T03:55:34.517Z,68.23
2022-12-03T03:58:01.400Z,66.87
2022-12-03T04:00:28.891Z,68.34
2022-12-03T04:02:55.556Z,67.03
2022-12-03T04:05:23.999Z,66.93
2022-12-03T04:07:51.080Z,68.09
2022-12-03T04:10:36.472Z,67.19
2022-12-03T04:13:04.036Z,67.92
2022-12-03T04:15:30.789Z,67.76
2022-12-03T04:18:16.397Z,68.45
2022-12-03T04:20:43.144Z,67.29
2022-12-03T04:23:09.866Z,67.00
2022-12-03T04:25:55.626Z,66.36
2022-12-03T04:28:57.793Z,66.69
2022-12-03T04:31:43.274Z,66.83
2022-12-03T04:34:29.291Z,66.17
2022-12-03T04:36:55.999Z,66.72
2022-12-03T04:39:22.755Z,68.10
2022-12-03T04:41:49.300Z,67.36
2022-12-03T04:44:35.645Z,67.82
2022-12-03T04:47:03.305Z,67.78
2022-12-03T04:49:30.295Z,68.54
2022-12-03T04:51:57.049Z,68.79
2022-12-03T04:54:23.824Z,68.59
2022-12-03T04:56:50.488Z,68.94
2022-12-03T04:59:17.049Z,68.08
2022-12-03T05:01:44.365Z,68.84
2022-12-03T05:04:13.535Z,67.69
2022-12-03T05:06:41.165Z,67.41
2022-12-03T05:09:07.860Z,68.21
2022-12-03T05:11:34.914Z,68.63
2022-12-03T05:14:01.544Z,68.14
2022-12-03T05:16:29.190Z,67.32
2022-12-03T05:18:55.834Z,67.53
2022-12-03T05:21:22.581Z,67.92
2022-12-03T05:23:49.613Z,66.71
2022-12-03T05:26:16.294Z,67.69
2022-12-03T05:28:43.044Z,67.42
2022-12-03T05:31:10.010Z,67.06
2022-12-03T05:33:42.462Z,67.73
2022-12-03T05:36:10.948Z,67.33
2022-12-03T05:38:37.553Z,66.48
2022-12-03T05:41:24.453Z,67.60
2022-12-03T05:43:51.180Z,66.98
2022-12-03T05:46:17.918Z,66.84
2022-12-03T05:48:44.600Z,66.50
2022-12-03T05:51:11.538Z,66.63
2022-12-03T05:53:38.154Z,66.77
2022-12-03T05:56:05.223Z,66.63
2022-12-03T05:58:41.048Z,67.11
2022-12-03T06:01:08.585Z,67.05
2022-12-03T06:03:35.513Z,67.50
2022-12-03T06:06:02.449Z,67.87
2022-12-03T06:08:29.269Z,66.87
2022-12-03T06:10:55.941Z,66.87
2022-12-03T06:13:22.751Z,66.81
2022-12-03T06:15:49.633Z,67.88
2022-12-03T06:18:16.432Z,66.69
2022-12-03T06:20:43.114Z,66.62
2022-12-03T06:23:10.112Z,66.95
2022-12-03T06:25:36.844Z,65.73
2022-12-03T06:28:03.803Z,66.29
2022-12-03T06:30:30.403Z,65.84
2022-12-03T06:33:01.593Z,66.19
2022-12-03T06:35:29.033Z,65.62
2022-12-03T06:37:55.782Z,65.93
2022-12-03T06:40:24.451Z,66.05
2022-12-03T06:42:51.560Z,65.45
2022-12-03T06:45:18.294Z,66.25
2022-12-03T06:47:45.146Z,65.72
2022-12-03T06:50:12.280Z,65.41
2022-12-03T06:52:38.945Z,66.05
2022-12-03T06:55:06.258Z,66.04
2022-12-03T06:57:32.927Z,65.13
2022-12-03T06:59:59.701Z,65.05
2022-12-03T07:02:26.439Z,65.46
2022-12-03T07:04:53.662Z,65.42
2022-12-03T07:07:20.787Z,65.78
2022-12-03T07:09:47.436Z,65.28
2022-12-03T07:12:14.294Z,64.95
2022-12-03T07:14:42.284Z,65.06
2022-12-03T07:17:09.064Z,65.11
2022-12-03T07:19:35.688Z,66.21
2022-12-03T07:22:02.874Z,66.48
2022-12-03T07:24:29.759Z,66.53
2022-12-03T07:26:56.792Z,66.37
2022-12-03T07:29:23.575Z,66.23
2022-12-03T07:31:50.419Z,66.46
2022-12-03T07:34:17.123Z,66.83
2022-12-03T07:36:43.875Z,66.74
2022-12-03T07:39:25.673Z,67.18
2022-12-03T07:41:52.436Z,66.80
2022-12-03T07:44:21.075Z,65.50
2022-12-03T07:46:48.087Z,65.44
2022-12-03T07:49:14.964Z,65.10
2022-12-03T07:51:41.703Z,65.19
2022-12-03T07:54:10.863Z,64.82
2022-12-03T07:56:41.268Z,65.81
2022-12-03T07:59:08.151Z,65.85
2022-12-03T08:01:34.992Z,66.61
2022-12-03T08:04:01.722Z,64.70
2022-12-03T08:06:28.726Z,65.67
2022-12-03T08:08:57.048Z,65.63
2022-12-03T08:11:23.802Z,66.07
2022-12-03T08:13:50.549Z,65.72
2022-12-03T08:16:29.157Z,65.42
2022-12-03T08:18:57.556Z,65.18
2022-12-03T08:21:24.407Z,64.89
2022-12-03T08:23:51.166Z,65.11
2022-12-03T08:26:28.005Z,64.98
2022-12-03T08:28:55.029Z,65.07
2022-12-03T08:31:32.216Z,65.66
2022-12-03T08:34:15.504Z,65.85
2022-12-03T08:36:42.256Z,66.18
2022-12-03T08:39:30.485Z,65.33
2022-12-03T08:42:28.030Z,66.80
2022-12-03T08:44:55.493Z,64.94
2022-12-03T08:47:25.212Z,65.78
2022-12-03T08:50:00.043Z,65.13
2022-12-03T08:52:35.417Z,65.41
2022-12-03T08:55:38.266Z,64.96
2022-12-03T08:58:28.996Z,64.80
2022-12-03T09:00:59.963Z,63.75
2022-12-03T09:03:31.074Z,63.26
2022-12-03T09:05:57.879Z,64.09
2022-12-03T09:08:24.648Z,64.60
2022-12-03T09:10:51.383Z,65.18
2022-12-03T09:13:17.975Z,64.71
2022-12-03T09:15:44.714Z,64.01
2022-12-03T09:18:11.397Z,63.89
2022-12-03T09:20:38.095Z,63.86
2022-12-03T09:23:04.711Z,64.33
2022-12-03T09:25:31.546Z,65.11
2022-12-03T09:27:58.274Z,65.59
2022-12-03T09:30:24.986Z,65.93
2022-12-03T09:32:51.706Z,64.99
2022-12-03T09:35:18.557Z,64.84
2022-12-03T09:37:45.249Z,64.18
2022-12-03T09:40:13.287Z,65.26
2022-12-03T09:42:40.273Z,64.77
2022-12-03T09:45:10.887Z,64.26
2022-12-03T09:47:39.818Z,64.74
2022-12-03T09:50:07.545Z,65.28
2022-12-03T09:52:34.854Z,64.73
2022-12-03T09:55:11.746Z,64.14
2022-12-03T09:57:38.552Z,65.22
2022-12-03T10:00:16.353Z,64.93
2022-12-03T10:02:45.346Z,65.19
2022-12-03T10:05:25.298Z,65.29
2022-12-03T10:07:52.934Z,65.29
2022-12-03T10:10:26.919Z,65.04
2022-12-03T10:12:54.915Z,65.07
2022-12-03T10:15:27.339Z,64.41
2022-12-03T10:18:02.604Z,63.96
2022-12-03T10:20:29.400Z,64.74
2022-12-03T10:22:55.987Z,64.35
2022-12-03T10:25:23.083Z,64.36
2022-12-03T10:28:02.094Z,64.51
2022-12-03T10:30:29.853Z,64.59
2022-12-03T10:33:14.361Z,64.38
2022-12-03T10:35:45.900Z,64.33
2022-12-03T10:38:18.527Z,64.11
2022-12-03T10:40:46.022Z,64.08
2022-12-03T10:43:19.294Z,63.75
2022-12-03T10:45:50.174Z,64.11
2022-12-03T10:48:27.910Z,64.15
2022-12-03T10:50:57.035Z,64.29
2022-12-03T10:53:27.804Z,64.28
2022-12-03T10:55:59.897Z,64.14
2022-12-03T10:58:34.129Z,63.76
2022-12-03T11:01:06.271Z,64.05
2022-12-03T11:03:36.294Z,64.60
2022-12-03T11:06:03.596Z,64.75
2022-12-03T11:08:43.684Z,64.96
2022-12-03T11:11:23.563Z,65.48
2022-12-03T11:13:56.591Z,64.71
2022-12-03T11:16:47.373Z,64.80
2022-12-03T11:19:38.625Z,65.15
2022-12-03T11:22:05.368Z,64.64
2022-12-03T11:24:33.050Z,63.65
2022-12-03T11:27:00.214Z,64.92
2022-12-03T11:29:53.795Z,63.88
2022-12-03T11:32:43.584Z,63.55
2022-12-03T11:35:16.497Z,63.47
2022-12-03T11:37:43.201Z,64.44
2022-12-03T11:40:18.999Z,64.22
2022-12-03T11:42:47.869Z,63.82
2022-12-03T11:45:34.231Z,65.06
2022-12-03T11:48:13.965Z,64.38
2022-12-03T11:50:44.699Z,64.77
2022-12-03T11:53:22.943Z,64.63
2022-12-03T11:56:06.321Z,64.70
2022-12-03T11:58:35.917Z,65.21
2022-12-03T12:01:05.199Z,65.48
2022-12-03T12:03:49.228Z,65.45
2022-12-03T12:06:19.097Z,65.71
2022-12-03T12:08:52.107Z,65.32
2022-12-03T12:11:19.913Z,65.40
2022-12-03T12:13:51.230Z,64.76
2022-12-03T12:16:50.387Z,65.57
2022-12-03T12:19:32.524Z,64.07
2022-12-03T12:22:26.769Z,64.21
2022-12-03T12:25:04.615Z,64.93
2022-12-03T12:27:48.205Z,63.79
2022-12-03T12:30:18.634Z,63.67
2022-12-03T12:32:50.904Z,64.45
2022-12-03T12:35:45.173Z,64.17
2022-12-03T12:38:29.872Z,64.53
2022-12-03T12:40:57.320Z,63.99
2022-12-03T12:43:28.073Z,64.20
2022-12-03T12:45:56.950Z,65.08
2022-12-03T12:48:27.318Z,64.29
2022-12-03T12:51:14.550Z,64.81
2022-12-03T12:53:42.964Z,64.90
2022-12-03T12:56:32.603Z,64.02
2022-12-03T12:59:12.517Z,64.54
2022-12-03T13:01:40.177Z,63.55
2022-12-03T13:04:19.433Z,63.46
2022-12-03T13:06:48.220Z,64.02
2022-12-03T13:09:19.449Z,63.52
2022-12-03T13:11:51.721Z,63.34
2022-12-03T13:14:21.042Z,63.35
2022-12-03T13:16:49.547Z,63.40
2022-12-03T13:19:30.739Z,63.78
2022-12-03T13:22:01.730Z,63.85
2022-12-03T13:24:31.264Z,63.90
2022-12-03T13:27:02.647Z,63.93
2022-12-03T13:29:29.315Z,64.31
2022-12-03T13:32:01.655Z,63.92
2022-12-03T13:34:36.234Z,63.80
2022-12-03T13:37:06.790Z,64.17
2022-12-03T13:39:36.910Z,64.55
2022-12-03T13:42:38.620Z,65.45
2022-12-03T13:45:24.707Z,65.00
2022-12-03T13:48:03.557Z,64.97
2022-12-03T13:50:46.176Z,64.39
2022-12-03T13:53:26.804Z,64.13
2022-12-03T13:56:14.680Z,64.42
2022-12-03T13:58:41.279Z,65.20
2022-12-03T14:01:08.011Z,65.20
2022-12-03T14:03:35.056Z,65.56
2022-12-03T14:06:01.618Z,64.78
2022-12-03T14:08:30.031Z,65.08
2022-12-03T14:11:00.570Z,65.41
2022-12-03T14:13:27.963Z,66.29
2022-12-03T14:15:55.296Z,65.33
2022-12-03T14:18:22.080Z,66.43
2022-12-03T14:20:48.762Z,66.42
2022-12-03T14:23:15.717Z,66.51
2022-12-03T14:25:43.998Z,65.62
2022-12-03T14:28:12.153Z,66.44
2022-12-03T14:30:39.104Z,65.36
2022-12-03T14:33:05.799Z,65.95
2022-12-03T14:35:32.590Z,66.87
2022-12-03T14:37:59.998Z,66.31
2022-12-03T14:40:27.459Z,67.66
2022-12-03T14:42:54.118Z,66.71
2022-12-03T14:45:20.994Z,67.18
2022-12-03T14:47:53.583Z,67.18
2022-12-03T14:50:20.210Z,66.70
2022-12-03T14:52:47.059Z,66.61
2022-12-03T14:55:14.293Z,66.30
2022-12-03T14:57:40.945Z,66.90
2022-12-03T15:00:18.593Z,66.93
2022-12-03T15:02:45.473Z,66.53
2022-12-03T15:05:12.138Z,65.83
2022-12-03T15:07:39.491Z,65.87
2022-12-03T15:10:08.619Z,66.53
2022-12-03T15:12:36.078Z,66.34
2022-12-03T15:15:03.175Z,66.98
2022-12-03T15:17:32.170Z,67.01
2022-12-03T15:19:59.099Z,66.04
2022-12-03T15:22:26.216Z,66.08
2022-12-03T15:24:52.839Z,66.59
2022-12-03T15:27:19.626Z,66.64
2022-12-03T15:29:46.214Z,66.04
2022-12-03T15:32:14.010Z,67.21
2022-12-03T15:34:41.249Z,67.39
2022-12-03T15:37:09.123Z,68.24
2022-12-03T15:39:36.427Z,67.82
2022-12-03T15:44:51.454Z,67.60
2022-12-03T15:47:18.083Z,67.73
2022-12-03T15:49:44.775Z,67.66
2022-12-03T15:52:11.388Z,67.80
2022-12-03T15:54:38.211Z,67.66
2022-12-03T15:57:04.677Z,66.85
2022-12-03T15:59:31.474Z,67.76
2022-12-03T16:01:58.521Z,67.88
2022-12-03T16:04:27.392Z,67.70
2022-12-03T16:06:54.503Z,68.58
2022-12-03T16:09:26.661Z,68.23
2022-12-03T16:11:55.096Z,68.66
2022-12-03T16:14:21.771Z,68.60
2022-12-03T16:16:48.363Z,68.96
2022-12-03T16:19:14.933Z,69.12
2022-12-03T16:21:42.956Z,69.43
2022-12-03T16:24:09.557Z,69.46
2022-12-03T16:26:36.357Z,69.12
2022-12-03T16:29:04.059Z,68.28
2022-12-03T16:31:32.977Z,67.82
2022-12-03T16:34:00.157Z,68.09
2022-12-03T16:36:26.932Z,68.01
2022-12-03T16:38:55.097Z,67.72
2022-12-03T16:41:22.940Z,68.06
2022-12-03T16:43:49.792Z,68.54
2022-12-03T16:46:16.415Z,68.17
2022-12-03T16:48:44.753Z,67.89
2022-12-03T16:51:11.510Z,68.72
2022-12-03T16:53:38.566Z,68.84
2022-12-03T16:56:05.915Z,69.04
2022-12-03T16:58:32.758Z,68.43
2022-12-03T17:01:01.980Z,68.83
2022-12-03T17:03:33.581Z,66.71
2022-12-03T17:59:45.939Z,71.42
2022-12-03T18:02:33.450Z,70.62
2022-12-03T18:05:03.627Z,70.35
2022-12-03T18:07:30.473Z,70.25
2022-12-03T18:09:57.737Z,70.93
2022-12-03T18:16:35.405Z,70.50
2022-12-03T18:19:06.212Z,71.27
2022-12-03T18:21:34.037Z,70.42
2022-12-03T18:24:00.929Z,70.64
2022-12-03T18:26:31.641Z,70.66
2022-12-03T18:28:58.450Z,70.11
2022-12-03T18:31:25.202Z,70.05
2022-12-03T18:33:52.643Z,70.34
2022-12-03T18:36:26.656Z,70.02
2022-12-03T18:38:55.444Z,69.64
2022-12-03T18:41:23.966Z,69.80
2022-12-03T18:43:51.151Z,68.82
2022-12-03T18:46:45.029Z,69.40
2022-12-03T18:49:06.288Z,68.95
2022-12-03T18:51:33.156Z,69.52
2022-12-03T18:53:59.799Z,70.29
2022-12-03T18:56:26.621Z,69.58
2022-12-03T18:58:53.442Z,70.24
2022-12-03T19:01:22.027Z,70.19
2022-12-03T19:03:50.249Z,69.16
2022-12-03T19:06:19.879Z,69.86
2022-12-03T19:08:49.356Z,69.91
2022-12-03T19:11:23.155Z,69.37
2022-12-03T19:13:49.965Z,70.83
2022-12-03T19:16:17.573Z,70.33
2022-12-03T19:18:45.752Z,70.57
2022-12-03T19:21:17.260Z,70.00
2022-12-03T19:24:04.254Z,69.89
2022-12-03T19:26:31.411Z,70.61
2022-12-03T19:29:01.145Z,70.19
2022-12-03T19:31:29.221Z,69.50
2022-12-03T19:33:56.311Z,70.14
2022-12-03T19:36:33.864Z,69.14
2022-12-03T19:39:01.672Z,69.21
2022-12-03T19:41:30.730Z,69.35
2022-12-03T19:43:58.270Z,69.89
2022-12-03T19:46:31.396Z,68.76
2022-12-03T19:48:58.838Z,68.23
2022-12-03T19:51:34.767Z,68.12
2022-12-03T19:54:07.340Z,69.15
2022-12-03T19:56:34.795Z,69.66
2022-12-03T19:59:01.583Z,69.26
2022-12-03T20:01:31.334Z,70.14
2022-12-03T20:03:59.686Z,69.54
2022-12-03T20:06:30.149Z,68.44
2022-12-03T20:09:01.301Z,67.74
2022-12-03T20:11:31.794Z,69.27
2022-12-03T20:14:03.510Z,70.39
2022-12-03T20:16:30.709Z,68.89
2022-12-03T20:19:02.253Z,69.72
2022-12-03T20:21:31.635Z,69.79
2022-12-03T20:23:59.304Z,69.66
2022-12-03T20:26:27.435Z,70.02
2022-12-03T20:28:55.931Z,69.52
2022-12-03T20:31:25.643Z,70.26
2022-12-03T20:33:55.814Z,70.04
2022-12-03T20:36:23.579Z,69.72
2022-12-03T20:38:58.866Z,69.41
2022-12-03T20:41:26.466Z,69.56
2022-12-03T20:43:54.046Z,68.99
2022-12-03T20:46:27.319Z,69.11
2022-12-03T20:48:55.280Z,69.77
2022-12-03T20:51:25.775Z,70.23
2022-12-03T20:53:55.120Z,70.35
2022-12-03T20:56:29.275Z,70.35
2022-12-03T20:59:14.966Z,69.71
2022-12-03T21:01:43.255Z,69.49
2022-12-03T21:04:18.208Z,69.47
2022-12-03T21:06:45.479Z,70.48
2022-12-03T21:09:15.521Z,69.67
2022-12-03T21:11:43.123Z,69.02
2022-12-03T21:14:11.241Z,69.37
2022-12-03T21:17:07.062Z,70.21
2022-12-03T21:19:30.001Z,69.07
2022-12-03T21:21:56.705Z,69.48
2022-12-03T21:24:23.417Z,69.76
2022-12-03T21:26:50.620Z,70.95
2022-12-03T21:29:18.267Z,71.57
2022-12-03T21:31:45.110Z,70.49
2022-12-03T21:34:12.965Z,70.71
2022-12-03T21:36:40.100Z,71.72
2022-12-03T21:39:07.276Z,70.89
2022-12-03T21:41:35.558Z,70.19
2022-12-03T21:44:02.430Z,70.04
2022-12-03T21:47:12.280Z,70.52
2022-12-03T21:49:19.460Z,70.44
2022-12-03T21:51:47.024Z,70.27
2022-12-03T21:54:16.447Z,70.01
2022-12-03T21:56:44.082Z,69.81
2022-12-03T21:59:10.891Z,70.01
2022-12-03T22:01:39.590Z,69.41
2022-12-03T22:04:10.889Z,71.21
2022-12-03T22:07:23.971Z,70.27
2022-12-03T22:09:58.120Z,70.33
2022-12-03T22:12:27.548Z,69.97
2022-12-03T22:14:57.145Z,69.78
2022-12-03T22:17:25.278Z,68.94
2022-12-03T22:19:52.237Z,69.36
2022-12-03T22:22:19.857Z,69.98
2022-12-03T22:24:47.268Z,69.20
2022-12-03T22:27:16.101Z,68.79
2022-12-03T22:29:43.201Z,69.72
2022-12-03T22:32:10.061Z,68.91
2022-12-03T22:34:38.156Z,68.85
2022-12-03T22:37:05.174Z,68.20
2022-12-03T22:39:33.157Z,69.51
2022-12-03T22:42:08.967Z,68.54
2022-12-03T22:44:35.704Z,69.05
2022-12-03T22:47:02.445Z,68.44
2022-12-03T22:49:29.441Z,69.03
2022-12-03T22:51:56.175Z,69.16
2022-12-03T22:54:24.283Z,69.13
2022-12-03T22:56:51.266Z,67.70
2022-12-03T22:59:21.302Z,68.41
2022-12-03T23:01:48.072Z,69.03
2022-12-03T23:04:14.857Z,69.38
2022-12-03T23:06:41.528Z,69.16
2022-12-03T23:09:08.569Z,69.11
2022-12-03T23:11:36.089Z,70.41
2022-12-03T23:14:03.356Z,70.15
2022-12-03T23:16:31.935Z,68.92
2022-12-03T23:19:02.312Z,68.57
2022-12-03T23:21:32.042Z,68.09
2022-12-03T23:24:00.765Z,68.81
2022-12-03T23:26:28.305Z,67.62
2022-12-03T23:28:55.599Z,67.68
2022-12-03T23:31:28.715Z,67.66
2022-12-03T23:33:57.348Z,68.32
2022-12-03T23:36:25.979Z,67.74
2022-12-03T23:38:52.898Z,67.37
2022-12-03T23:41:21.484Z,67.65
2022-12-03T23:43:48.249Z,67.65
2022-12-03T23:46:16.770Z,68.43
2022-12-03T23:48:43.841Z,68.41
2022-12-03T23:51:13.793Z,68.49
2022-12-03T23:53:41.440Z,68.58
2022-12-03T23:56:09.441Z,68.83
2022-12-03T23:58:36.145Z,68.44
